sensor_id;sensor_type;location;lat;lon;timestamp;P1;durP1;ratioP1;P2;durP2;ratioP2
25443;SDS011;13368;52.346;4.678;2023-02-28T00:00:00;7.8;;;5.2;;
25443;SDS011;13368;52.346;4.678;2023-02-28T00:05:00;8.9;;;5.1;;
25443;SDS011;13368;52.346;4.678;2023-02-28T00:15:00;11.8;;;5.6;;
25443;SDS011;13368;52.346;4.678;2023-02-28T00:20:00;10.7;;;5.3;;
25443;SDS011;13368;52.346;4.678;2023-02-28T00:25:00;8.3;;;5.5;;
25443;SDS011;13368;52.346;4.678;2023-02-28T00:30:00;9.2;;;5.7;;
25443;SDS011;13368;52.346;4.678;2023-02-28T00:35:00;10.1;;;5.5;;
25443;SDS011;13368;52.346;4.678;2023-02-28T00:40:00;11.3;;;5.9;;
25443;SDS011;13368;52.346;4.678;2023-02-28T00:45:00;8.7;;;5.9;;
25443;SDS011;13368;52.346;4.678;2023-02-28T00:50:00;8.5;;;5.7;;
25443;SDS011;13368;52.346;4.678;2023-02-28T00:55:00;8.8;;;5.4;;
25443;SDS011;13368;52.346;4.678;2023-02-28T01:00:00;10.9;;;6.1;;
25443;SDS011;13368;52.346;4.678;2023-02-28T01:05:00;16.2;;;6.8;;
25443;SDS011;13368;52.346;4.678;2023-02-28T01:10:00;17.0;;;6.9;;
25443;SDS011;13368;52.346;4.678;2023-02-28T01:15:00;12.2;;;7.0;;
25443;SDS011;13368;52.346;4.678;2023-02-28T01:20:00;10.6;;;5.9;;
25443;SDS011;13368;52.346;4.678;2023-02-28T01:25:00;10.4;;;6.0;;
25443;SDS011;13368;52.346;4.678;2023-02-28T01:30:00;10.0;;;5.9;;
25443;SDS011;13368;52.346;4.678;2023-02-28T01:35:00;8.3;;;5.5;;
25443;SDS011;13368;52.346;4.678;2023-02-28T01:40:00;10.1;;;6.0;;
25443;SDS011;13368;52.346;4.678;2023-02-28T01:45:02;11.0;;;7.1;;
25443;SDS011;13368;52.346;4.678;2023-02-28T01:50:01;12.3;;;6.6;;
25443;SDS011;13368;52.346;4.678;2023-02-28T01:55:01;11.7;;;6.5;;
25443;SDS011;13368;52.346;4.678;2023-02-28T02:00:00;11.1;;;6.5;;
25443;SDS011;13368;52.346;4.678;2023-02-28T02:05:04;12.6;;;7.5;;
25443;SDS011;13368;52.346;4.678;2023-02-28T02:10:01;12.8;;;6.4;;
25443;SDS011;13368;52.346;4.678;2023-02-28T02:15:01;16.5;;;7.4;;
25443;SDS011;13368;52.346;4.678;2023-02-28T02:25:08;14.7;;;8.4;;
25443;SDS011;13368;52.346;4.678;2023-02-28T02:30:08;15.3;;;8.1;;
25443;SDS011;13368;52.346;4.678;2023-02-28T02:35:01;12.2;;;7.3;;
25443;SDS011;13368;52.346;4.678;2023-02-28T02:40:03;14.4;;;7.4;;
25443;SDS011;13368;52.346;4.678;2023-02-28T02:45:01;10.2;;;7.1;;
25443;SDS011;13368;52.346;4.678;2023-02-28T02:50:01;12.8;;;7.3;;
25443;SDS011;13368;52.346;4.678;2023-02-28T02:55:00;9.3;;;6.9;;
25443;SDS011;13368;52.346;4.678;2023-02-28T03:00:00;17.6;;;7.9;;
25443;SDS011;13368;52.346;4.678;2023-02-28T03:05:01;12.8;;;7.9;;
25443;SDS011;13368;52.346;4.678;2023-02-28T03:10:00;15.4;;;8.3;;
25443;SDS011;13368;52.346;4.678;2023-02-28T03:15:03;13.8;;;7.8;;
25443;SDS011;13368;52.346;4.678;2023-02-28T03:20:04;17.1;;;8.3;;
25443;SDS011;13368;52.346;4.678;2023-02-28T03:25:02;14.7;;;7.9;;
25443;SDS011;13368;52.346;4.678;2023-02-28T03:30:00;13.1;;;8.3;;
25443;SDS011;13368;52.346;4.678;2023-02-28T03:35:01;17.1;;;8.0;;
25443;SDS011;13368;52.346;4.678;2023-02-28T03:40:01;13.2;;;8.7;;
25443;SDS011;13368;52.346;4.678;2023-02-28T03:45:01;13.5;;;8.5;;
25443;SDS011;13368;52.346;4.678;2023-02-28T03:50:01;13.7;;;8.6;;
25443;SDS011;13368;52.346;4.678;2023-02-28T03:55:00;16.2;;;8.6;;
25443;SDS011;13368;52.346;4.678;2023-02-28T04:00:03;20.9;;;8.6;;
25443;SDS011;13368;52.346;4.678;2023-02-28T04:05:00;13.8;;;8.5;;
25443;SDS011;13368;52.346;4.678;2023-02-28T04:10:00;17.1;;;9.2;;
25443;SDS011;13368;52.346;4.678;2023-02-28T04:15:01;13.8;;;9.0;;
25443;SDS011;13368;52.346;4.678;2023-02-28T04:20:00;14.5;;;8.5;;
25443;SDS011;13368;52.346;4.678;2023-02-28T04:25:00;17.7;;;9.4;;
25443;SDS011;13368;52.346;4.678;2023-02-28T04:30:00;15.1;;;9.4;;
25443;SDS011;13368;52.346;4.678;2023-02-28T04:35:00;13.1;;;8.3;;
25443;SDS011;13368;52.346;4.678;2023-02-28T04:40:00;13.8;;;8.7;;
25443;SDS011;13368;52.346;4.678;2023-02-28T04:45:00;14.0;;;8.7;;
25443;SDS011;13368;52.346;4.678;2023-02-28T04:50:00;15.1;;;9.4;;
25443;SDS011;13368;52.346;4.678;2023-02-28T04:55:00;14.9;;;8.8;;
25443;SDS011;13368;52.346;4.678;2023-02-28T05:00:00;14.7;;;9.6;;
25443;SDS011;13368;52.346;4.678;2023-02-28T05:05:00;14.9;;;9.0;;
25443;SDS011;13368;52.346;4.678;2023-02-28T05:10:00;18.3;;;9.5;;
25443;SDS011;13368;52.346;4.678;2023-02-28T05:15:00;17.7;;;9.6;;
25443;SDS011;13368;52.346;4.678;2023-02-28T05:20:00;17.4;;;10.0;;
25443;SDS011;13368;52.346;4.678;2023-02-28T05:25:00;22.7;;;10.9;;
25443;SDS011;13368;52.346;4.678;2023-02-28T05:30:00;17.5;;;9.8;;
25443;SDS011;13368;52.346;4.678;2023-02-28T05:35:00;16.7;;;10.1;;
25443;SDS011;13368;52.346;4.678;2023-02-28T05:40:00;15.4;;;9.8;;
25443;SDS011;13368;52.346;4.678;2023-02-28T05:45:00;15.4;;;9.0;;
25443;SDS011;13368;52.346;4.678;2023-02-28T05:50:00;13.9;;;7.7;;
25443;SDS011;13368;52.346;4.678;2023-02-28T05:55:00;12.6;;;7.5;;
25443;SDS011;13368;52.346;4.678;2023-02-28T06:00:00;13.2;;;7.5;;
25443;SDS011;13368;52.346;4.678;2023-02-28T06:05:00;12.5;;;7.6;;
25443;SDS011;13368;52.346;4.678;2023-02-28T06:10:00;11.7;;;7.0;;
25443;SDS011;13368;52.346;4.678;2023-02-28T06:15:00;12.8;;;7.0;;
25443;SDS011;13368;52.346;4.678;2023-02-28T06:20:00;13.0;;;7.2;;
25443;SDS011;13368;52.346;4.678;2023-02-28T06:25:00;17.4;;;8.3;;
25443;SDS011;13368;52.346;4.678;2023-02-28T06:30:00;14.7;;;9.4;;
25443;SDS011;13368;52.346;4.678;2023-02-28T06:35:00;14.3;;;9.6;;
25443;SDS011;13368;52.346;4.678;2023-02-28T06:40:00;18.4;;;10.4;;
25443;SDS011;13368;52.346;4.678;2023-02-28T06:45:00;18.5;;;11.0;;
25443;SDS011;13368;52.346;4.678;2023-02-28T06:50:00;16.9;;;10.6;;
25443;SDS011;13368;52.346;4.678;2023-02-28T06:55:00;20.4;;;11.6;;
25443;SDS011;13368;52.346;4.678;2023-02-28T07:00:01;20.0;;;11.6;;
25443;SDS011;13368;52.346;4.678;2023-02-28T07:05:00;22.9;;;12.4;;
25443;SDS011;13368;52.346;4.678;2023-02-28T07:10:00;22.4;;;13.1;;
25443;SDS011;13368;52.346;4.678;2023-02-28T07:15:00;25.9;;;13.3;;
25443;SDS011;13368;52.346;4.678;2023-02-28T07:20:00;26.5;;;14.2;;
25443;SDS011;13368;52.346;4.678;2023-02-28T07:25:00;21.7;;;12.6;;
25443;SDS011;13368;52.346;4.678;2023-02-28T07:30:00;19.8;;;12.6;;
25443;SDS011;13368;52.346;4.678;2023-02-28T07:35:00;22.8;;;14.5;;
25443;SDS011;13368;52.346;4.678;2023-02-28T07:40:00;21.1;;;13.8;;
25443;SDS011;13368;52.346;4.678;2023-02-28T07:45:00;22.7;;;14.2;;
25443;SDS011;13368;52.346;4.678;2023-02-28T07:50:00;17.7;;;12.4;;
25443;SDS011;13368;52.346;4.678;2023-02-28T07:55:00;14.3;;;9.7;;
25443;SDS011;13368;52.346;4.678;2023-02-28T08:00:00;14.0;;;9.5;;
25443;SDS011;13368;52.346;4.678;2023-02-28T08:05:00;15.6;;;9.4;;
25443;SDS011;13368;52.346;4.678;2023-02-28T08:10:00;15.8;;;10.4;;
25443;SDS011;13368;52.346;4.678;2023-02-28T08:15:00;12.0;;;9.4;;
25443;SDS011;13368;52.346;4.678;2023-02-28T08:20:00;14.5;;;9.8;;
25443;SDS011;13368;52.346;4.678;2023-02-28T08:25:00;16.1;;;9.9;;
25443;SDS011;13368;52.346;4.678;2023-02-28T08:30:00;13.8;;;9.7;;
25443;SDS011;13368;52.346;4.678;2023-02-28T08:35:00;13.1;;;9.5;;
25443;SDS011;13368;52.346;4.678;2023-02-28T08:40:00;14.0;;;10.1;;
25443;SDS011;13368;52.346;4.678;2023-02-28T08:45:00;16.0;;;10.6;;
25443;SDS011;13368;52.346;4.678;2023-02-28T08:50:00;14.4;;;10.5;;
25443;SDS011;13368;52.346;4.678;2023-02-28T08:55:00;14.7;;;10.3;;
25443;SDS011;13368;52.346;4.678;2023-02-28T09:00:00;16.5;;;11.3;;
25443;SDS011;13368;52.346;4.678;2023-02-28T09:05:00;19.9;;;10.9;;
25443;SDS011;13368;52.346;4.678;2023-02-28T09:10:00;17.6;;;11.6;;
25443;SDS011;13368;52.346;4.678;2023-02-28T09:15:00;14.6;;;10.6;;
25443;SDS011;13368;52.346;4.678;2023-02-28T09:20:00;14.0;;;10.4;;
25443;SDS011;13368;52.346;4.678;2023-02-28T09:25:00;18.4;;;11.0;;
25443;SDS011;13368;52.346;4.678;2023-02-28T09:30:00;14.8;;;9.8;;
25443;SDS011;13368;52.346;4.678;2023-02-28T09:35:00;16.6;;;11.3;;
25443;SDS011;13368;52.346;4.678;2023-02-28T09:40:00;14.0;;;9.7;;
25443;SDS011;13368;52.346;4.678;2023-02-28T09:45:00;17.1;;;10.3;;
25443;SDS011;13368;52.346;4.678;2023-02-28T09:50:03;17.2;;;11.0;;
25443;SDS011;13368;52.346;4.678;2023-02-28T09:55:01;20.8;;;12.6;;
25443;SDS011;13368;52.346;4.678;2023-02-28T10:00:03;18.0;;;10.5;;
25443;SDS011;13368;52.346;4.678;2023-02-28T10:05:01;16.1;;;10.5;;
25443;SDS011;13368;52.346;4.678;2023-02-28T10:10:01;18.6;;;10.8;;
25443;SDS011;13368;52.346;4.678;2023-02-28T10:15:00;16.0;;;10.5;;
25443;SDS011;13368;52.346;4.678;2023-02-28T10:20:02;16.4;;;10.6;;
25443;SDS011;13368;52.346;4.678;2023-02-28T10:25:00;18.5;;;11.4;;
25443;SDS011;13368;52.346;4.678;2023-02-28T10:30:01;19.1;;;10.5;;
25443;SDS011;13368;52.346;4.678;2023-02-28T10:45:04;11.7;;;7.2;;
25443;SDS011;13368;52.346;4.678;2023-02-28T10:50:00;15.9;;;10.7;;
25443;SDS011;13368;52.346;4.678;2023-02-28T11:00:08;10.2;;;6.8;;
25443;SDS011;13368;52.346;4.678;2023-02-28T11:05:00;8.9;;;6.1;;
25443;SDS011;13368;52.346;4.678;2023-02-28T11:10:00;6.9;;;5.5;;
25443;SDS011;13368;52.346;4.678;2023-02-28T11:15:01;8.2;;;6.0;;
25443;SDS011;13368;52.346;4.678;2023-02-28T11:20:01;17.6;;;10.2;;
25443;SDS011;13368;52.346;4.678;2023-02-28T11:25:01;9.7;;;6.3;;
25443;SDS011;13368;52.346;4.678;2023-02-28T11:30:00;5.6;;;4.9;;
25443;SDS011;13368;52.346;4.678;2023-02-28T11:35:01;6.4;;;5.1;;
25443;SDS011;13368;52.346;4.678;2023-02-28T11:40:00;7.1;;;5.0;;
25443;SDS011;13368;52.346;4.678;2023-02-28T11:45:03;6.8;;;5.4;;
25443;SDS011;13368;52.346;4.678;2023-02-28T11:50:05;6.4;;;4.9;;
25443;SDS011;13368;52.346;4.678;2023-02-28T11:55:03;6.5;;;5.5;;
25443;SDS011;13368;52.346;4.678;2023-02-28T12:00:02;6.3;;;5.7;;
25443;SDS011;13368;52.346;4.678;2023-02-28T12:05:05;6.5;;;4.6;;
25443;SDS011;13368;52.346;4.678;2023-02-28T12:10:02;7.3;;;5.7;;
25443;SDS011;13368;52.346;4.678;2023-02-28T12:15:04;7.1;;;5.6;;
25443;SDS011;13368;52.346;4.678;2023-02-28T12:20:02;8.7;;;5.3;;
25443;SDS011;13368;52.346;4.678;2023-02-28T12:25:13;6.4;;;5.2;;
25443;SDS011;13368;52.346;4.678;2023-02-28T12:30:01;7.4;;;5.3;;
25443;SDS011;13368;52.346;4.678;2023-02-28T12:35:01;6.8;;;5.4;;
25443;SDS011;13368;52.346;4.678;2023-02-28T12:40:01;6.2;;;4.9;;
25443;SDS011;13368;52.346;4.678;2023-02-28T12:45:01;9.5;;;5.9;;
25443;SDS011;13368;52.346;4.678;2023-02-28T12:50:02;7.3;;;5.9;;
25443;SDS011;13368;52.346;4.678;2023-02-28T12:55:02;9.4;;;5.7;;
25443;SDS011;13368;52.346;4.678;2023-02-28T13:00:01;7.7;;;5.5;;
25443;SDS011;13368;52.346;4.678;2023-02-28T13:05:04;8.9;;;5.2;;
25443;SDS011;13368;52.346;4.678;2023-02-28T13:10:00;6.4;;;5.3;;
25443;SDS011;13368;52.346;4.678;2023-02-28T13:15:04;9.4;;;5.7;;
25443;SDS011;13368;52.346;4.678;2023-02-28T13:20:00;6.4;;;5.4;;
25443;SDS011;13368;52.346;4.678;2023-02-28T13:25:00;7.6;;;6.2;;
25443;SDS011;13368;52.346;4.678;2023-02-28T13:40:22;6.8;;;5.9;;
25443;SDS011;13368;52.346;4.678;2023-02-28T13:55:11;6.3;;;5.4;;
25443;SDS011;13368;52.346;4.678;2023-02-28T14:00:03;6.5;;;5.0;;
25443;SDS011;13368;52.346;4.678;2023-02-28T14:05:01;5.2;;;4.4;;
25443;SDS011;13368;52.346;4.678;2023-02-28T14:10:01;5.5;;;4.7;;
25443;SDS011;13368;52.346;4.678;2023-02-28T14:15:00;6.3;;;5.4;;
25443;SDS011;13368;52.346;4.678;2023-02-28T14:20:00;8.2;;;5.3;;
25443;SDS011;13368;52.346;4.678;2023-02-28T14:25:05;7.9;;;5.1;;
25443;SDS011;13368;52.346;4.678;2023-02-28T14:30:10;5.7;;;4.9;;
25443;SDS011;13368;52.346;4.678;2023-02-28T14:35:02;5.7;;;4.9;;
25443;SDS011;13368;52.346;4.678;2023-02-28T14:40:00;6.9;;;5.8;;
25443;SDS011;13368;52.346;4.678;2023-02-28T14:45:00;8.3;;;6.1;;
25443;SDS011;13368;52.346;4.678;2023-02-28T14:50:00;6.2;;;5.0;;
25443;SDS011;13368;52.346;4.678;2023-02-28T14:55:01;7.7;;;5.9;;
25443;SDS011;13368;52.346;4.678;2023-02-28T15:00:01;6.1;;;5.0;;
25443;SDS011;13368;52.346;4.678;2023-02-28T15:05:01;6.1;;;5.5;;
25443;SDS011;13368;52.346;4.678;2023-02-28T15:10:07;8.0;;;6.0;;
25443;SDS011;13368;52.346;4.678;2023-02-28T15:15:00;5.6;;;4.7;;
25443;SDS011;13368;52.346;4.678;2023-02-28T15:20:00;8.1;;;5.6;;
25443;SDS011;13368;52.346;4.678;2023-02-28T15:25:00;8.1;;;6.1;;
25443;SDS011;13368;52.346;4.678;2023-02-28T15:30:01;7.6;;;5.8;;
25443;SDS011;13368;52.346;4.678;2023-02-28T15:40:04;7.7;;;4.8;;
25443;SDS011;13368;52.346;4.678;2023-02-28T15:45:00;6.5;;;4.4;;
25443;SDS011;13368;52.346;4.678;2023-02-28T15:50:00;6.6;;;5.0;;
25443;SDS011;13368;52.346;4.678;2023-02-28T15:55:06;6.9;;;5.3;;
25443;SDS011;13368;52.346;4.678;2023-02-28T16:00:00;10.9;;;7.4;;
25443;SDS011;13368;52.346;4.678;2023-02-28T16:05:01;6.0;;;4.8;;
25443;SDS011;13368;52.346;4.678;2023-02-28T16:10:00;7.6;;;6.0;;
25443;SDS011;13368;52.346;4.678;2023-02-28T16:15:01;8.1;;;5.4;;
25443;SDS011;13368;52.346;4.678;2023-02-28T16:20:00;8.1;;;5.7;;
25443;SDS011;13368;52.346;4.678;2023-02-28T16:25:00;8.3;;;5.7;;
25443;SDS011;13368;52.346;4.678;2023-02-28T16:30:00;7.9;;;6.1;;
25443;SDS011;13368;52.346;4.678;2023-02-28T16:35:00;6.8;;;5.1;;
25443;SDS011;13368;52.346;4.678;2023-02-28T16:40:00;7.1;;;5.8;;
25443;SDS011;13368;52.346;4.678;2023-02-28T16:45:01;8.9;;;6.1;;
25443;SDS011;13368;52.346;4.678;2023-02-28T16:50:00;8.3;;;6.7;;
25443;SDS011;13368;52.346;4.678;2023-02-28T16:55:00;7.3;;;6.3;;
25443;SDS011;13368;52.346;4.678;2023-02-28T17:00:00;9.4;;;7.2;;
25443;SDS011;13368;52.346;4.678;2023-02-28T17:05:00;10.4;;;6.9;;
25443;SDS011;13368;52.346;4.678;2023-02-28T17:10:00;11.1;;;8.1;;
25443;SDS011;13368;52.346;4.678;2023-02-28T17:15:01;15.3;;;8.7;;
25443;SDS011;13368;52.346;4.678;2023-02-28T17:20:01;13.3;;;8.8;;
25443;SDS011;13368;52.346;4.678;2023-02-28T17:25:00;10.6;;;7.6;;
25443;SDS011;13368;52.346;4.678;2023-02-28T17:30:00;9.9;;;7.0;;
25443;SDS011;13368;52.346;4.678;2023-02-28T17:35:00;8.6;;;6.8;;
25443;SDS011;13368;52.346;4.678;2023-02-28T17:40:00;12.0;;;7.6;;
25443;SDS011;13368;52.346;4.678;2023-02-28T17:45:00;13.5;;;9.1;;
25443;SDS011;13368;52.346;4.678;2023-02-28T17:50:00;14.0;;;9.4;;
25443;SDS011;13368;52.346;4.678;2023-02-28T17:55:00;11.6;;;8.4;;
25443;SDS011;13368;52.346;4.678;2023-02-28T18:00:00;13.0;;;8.9;;
25443;SDS011;13368;52.346;4.678;2023-02-28T18:05:00;15.1;;;9.8;;
25443;SDS011;13368;52.346;4.678;2023-02-28T18:10:00;11.9;;;8.7;;
25443;SDS011;13368;52.346;4.678;2023-02-28T18:15:00;15.2;;;9.3;;
25443;SDS011;13368;52.346;4.678;2023-02-28T18:20:00;13.7;;;9.8;;
25443;SDS011;13368;52.346;4.678;2023-02-28T18:25:00;18.2;;;9.8;;
25443;SDS011;13368;52.346;4.678;2023-02-28T18:30:00;11.8;;;9.4;;
25443;SDS011;13368;52.346;4.678;2023-02-28T18:35:00;16.2;;;10.3;;
25443;SDS011;13368;52.346;4.678;2023-02-28T18:40:00;14.9;;;10.0;;
25443;SDS011;13368;52.346;4.678;2023-02-28T18:45:00;15.5;;;10.1;;
25443;SDS011;13368;52.346;4.678;2023-02-28T18:50:00;12.1;;;9.2;;
25443;SDS011;13368;52.346;4.678;2023-02-28T18:55:00;15.8;;;9.9;;
25443;SDS011;13368;52.346;4.678;2023-02-28T19:00:00;24.1;;;16.1;;
25443;SDS011;13368;52.346;4.678;2023-02-28T19:05:00;18.1;;;12.3;;
25443;SDS011;13368;52.346;4.678;2023-02-28T19:10:00;16.1;;;10.8;;
25443;SDS011;13368;52.346;4.678;2023-02-28T19:15:00;17.7;;;11.4;;
25443;SDS011;13368;52.346;4.678;2023-02-28T19:20:00;15.9;;;12.0;;
25443;SDS011;13368;52.346;4.678;2023-02-28T19:25:00;18.5;;;13.0;;
25443;SDS011;13368;52.346;4.678;2023-02-28T19:30:01;18.3;;;12.1;;
25443;SDS011;13368;52.346;4.678;2023-02-28T19:35:00;19.1;;;12.9;;
25443;SDS011;13368;52.346;4.678;2023-02-28T19:40:00;19.0;;;12.4;;
25443;SDS011;13368;52.346;4.678;2023-02-28T19:45:00;19.6;;;13.6;;
25443;SDS011;13368;52.346;4.678;2023-02-28T19:50:00;23.3;;;15.2;;
25443;SDS011;13368;52.346;4.678;2023-02-28T19:55:00;22.6;;;14.7;;
25443;SDS011;13368;52.346;4.678;2023-02-28T20:00:00;26.9;;;18.1;;
25443;SDS011;13368;52.346;4.678;2023-02-28T20:05:00;29.9;;;19.3;;
25443;SDS011;13368;52.346;4.678;2023-02-28T20:10:00;22.8;;;16.0;;
25443;SDS011;13368;52.346;4.678;2023-02-28T20:15:01;30.0;;;18.8;;
25443;SDS011;13368;52.346;4.678;2023-02-28T20:20:00;31.0;;;20.5;;
25443;SDS011;13368;52.346;4.678;2023-02-28T20:25:00;28.8;;;18.9;;
25443;SDS011;13368;52.346;4.678;2023-02-28T20:30:00;27.2;;;17.2;;
25443;SDS011;13368;52.346;4.678;2023-02-28T20:35:00;26.4;;;17.0;;
25443;SDS011;13368;52.346;4.678;2023-02-28T20:40:00;23.9;;;15.1;;
25443;SDS011;13368;52.346;4.678;2023-02-28T20:45:00;22.5;;;14.8;;
25443;SDS011;13368;52.346;4.678;2023-02-28T20:50:00;21.5;;;13.8;;
25443;SDS011;13368;52.346;4.678;2023-02-28T20:55:00;27.6;;;15.5;;
25443;SDS011;13368;52.346;4.678;2023-02-28T21:00:00;22.2;;;14.6;;
25443;SDS011;13368;52.346;4.678;2023-02-28T21:05:00;22.6;;;14.7;;
25443;SDS011;13368;52.346;4.678;2023-02-28T21:10:00;25.3;;;16.3;;
25443;SDS011;13368;52.346;4.678;2023-02-28T21:15:00;23.7;;;16.0;;
25443;SDS011;13368;52.346;4.678;2023-02-28T21:20:00;23.9;;;16.7;;
25443;SDS011;13368;52.346;4.678;2023-02-28T21:25:00;27.0;;;17.2;;
25443;SDS011;13368;52.346;4.678;2023-02-28T21:30:00;26.7;;;16.9;;
25443;SDS011;13368;52.346;4.678;2023-02-28T21:35:00;24.9;;;16.8;;
25443;SDS011;13368;52.346;4.678;2023-02-28T21:40:00;29.5;;;17.7;;
25443;SDS011;13368;52.346;4.678;2023-02-28T21:45:00;29.2;;;18.8;;
25443;SDS011;13368;52.346;4.678;2023-02-28T21:50:00;31.9;;;19.5;;
25443;SDS011;13368;52.346;4.678;2023-02-28T21:55:00;31.7;;;19.1;;
25443;SDS011;13368;52.346;4.678;2023-02-28T22:00:00;27.5;;;16.0;;
25443;SDS011;13368;52.346;4.678;2023-02-28T22:05:00;30.2;;;15.9;;
25443;SDS011;13368;52.346;4.678;2023-02-28T22:10:00;25.4;;;15.0;;
25443;SDS011;13368;52.346;4.678;2023-02-28T22:15:00;23.3;;;14.2;;
25443;SDS011;13368;52.346;4.678;2023-02-28T22:20:00;22.7;;;14.6;;
25443;SDS011;13368;52.346;4.678;2023-02-28T22:25:00;23.0;;;13.8;;
25443;SDS011;13368;52.346;4.678;2023-02-28T22:30:00;23.5;;;15.5;;
25443;SDS011;13368;52.346;4.678;2023-02-28T22:35:00;29.9;;;17.1;;
25443;SDS011;13368;52.346;4.678;2023-02-28T22:40:00;27.8;;;16.5;;
25443;SDS011;13368;52.346;4.678;2023-02-28T22:45:00;29.3;;;16.8;;
25443;SDS011;13368;52.346;4.678;2023-02-28T22:50:00;27.1;;;16.0;;
25443;SDS011;13368;52.346;4.678;2023-02-28T22:55:00;23.5;;;15.5;;
25443;SDS011;13368;52.346;4.678;2023-02-28T23:00:00;25.2;;;15.5;;
25443;SDS011;13368;52.346;4.678;2023-02-28T23:05:00;26.5;;;16.4;;
25443;SDS011;13368;52.346;4.678;2023-02-28T23:10:02;25.5;;;16.3;;
25443;SDS011;13368;52.346;4.678;2023-02-28T23:15:00;24.3;;;15.1;;
25443;SDS011;13368;52.346;4.678;2023-02-28T23:20:00;24.4;;;14.3;;
25443;SDS011;13368;52.346;4.678;2023-02-28T23:25:00;24.0;;;14.1;;
25443;SDS011;13368;52.346;4.678;2023-02-28T23:30:00;25.2;;;14.4;;
25443;SDS011;13368;52.346;4.678;2023-02-28T23:35:00;22.2;;;14.1;;
25443;SDS011;13368;52.346;4.678;2023-02-28T23:40:00;23.8;;;14.3;;
25443;SDS011;13368;52.346;4.678;2023-02-28T23:45:00;26.3;;;15.1;;
25443;SDS011;13368;52.346;4.678;2023-02-28T23:50:00;26.7;;;15.2;;
25443;SDS011;13368;52.346;4.678;2023-02-28T23:55:00;23.4;;;14.9;;
